Kalamazoo Battle Creek International Airport
KAZO : now visible

Airfield :











YOU CAN JOIN US ON...

 
LOGIN :

Register | Disclaimer

   EN    FR    IT 

 









Legend :    VFR   Marginal VFR   IFR   Intensive IFR   Very Intensive IFR
Visi :
Ceiling :
>= 8 km
>= 3000ft
5 to 8 km
1000 to 3000 ft
1500m to 5 km
500 to 1000 ft
800 to 1500m
200 to 500 ft
< 800m
< 200 ft
Symbols :   Thunderstorms  Fog  Heavy snow  Heavy precipitations  Wind > 20 kt






- Airport Elevation : 874 ft
- IATA code : AZO


KAZO - Kalamazoo Battle Creek International

CURRENT METAR :
  • 150353Z AUTO 30007KT 10SM CLR 02/M04 A3001 RMK AO2 SLP169 T00221044

EXPIRED METARs :
  • 150253Z 29005KT 10SM SCT045 03/M04 A3003 RMK AO2 SLP176 T00281044 50001
  • 150153Z 30007KT 10SM OVC047 04/M04 A3004 RMK AO2 SLP178 T00391044

TAF KAZO
Valid from the 15 at 00:00 until the 16 at 00:00 UTC


142340Z 1500/1524 27012G20KT P6SM BKN045
FM150500 28009G16KT P6SM VCSH BKN015
FM151200 30012G20KT 5SM -RASN BR BKN009
FM151500 31014G26KT P6SM VCSH BKN012
FM152100 31013G21KT P6SM BKN025
KZAU FIR / North America



MET'MAP, your aeronautical weather chart ! - Copyright ORBIFLY December 2007 - Disclaimer

ORBIFLY MET'MAP TEAM :

Programming & Development : Alexandra Zaïnal
Concept & original design : Baudouin d'Aumeries
Assistance for programming : Marc-Olivier Méhu
Technical & hardware support : Manuel Goepfert

Contact : metmap@orbifly.com




SOURCES & CREDITS :

   NOAA       Earth
Advisory